sensor_id;sensor_type;location;lat;lon;timestamp;P1;durP1;ratioP1;P2;durP2;ratioP2
43529;SDS011;55654;50.966;6.878;2023-07-24T00:00:12;5.43;;;3.53;;
43529;SDS011;55654;50.966;6.878;2023-07-24T00:02:40;4.35;;;3.00;;
43529;SDS011;55654;50.966;6.878;2023-07-24T00:05:06;4.45;;;3.03;;
43529;SDS011;55654;50.966;6.878;2023-07-24T00:07:35;7.22;;;3.50;;
43529;SDS011;55654;50.966;6.878;2023-07-24T00:10:02;7.05;;;4.00;;
43529;SDS011;55654;50.966;6.878;2023-07-24T00:12:30;4.93;;;3.42;;
43529;SDS011;55654;50.966;6.878;2023-07-24T00:14:56;10.43;;;4.20;;
43529;SDS011;55654;50.966;6.878;2023-07-24T00:17:22;5.75;;;4.13;;
43529;SDS011;55654;50.966;6.878;2023-07-24T00:19:51;8.45;;;3.95;;
43529;SDS011;55654;50.966;6.878;2023-07-24T00:22:17;9.27;;;5.43;;
43529;SDS011;55654;50.966;6.878;2023-07-24T00:24:42;13.77;;;6.90;;
43529;SDS011;55654;50.966;6.878;2023-07-24T00:27:08;13.68;;;8.00;;
43529;SDS011;55654;50.966;6.878;2023-07-24T00:29:34;15.30;;;9.10;;
43529;SDS011;55654;50.966;6.878;2023-07-24T00:32:00;17.58;;;9.73;;
43529;SDS011;55654;50.966;6.878;2023-07-24T00:34:26;17.63;;;10.75;;
43529;SDS011;55654;50.966;6.878;2023-07-24T00:36:52;28.63;;;11.45;;
43529;SDS011;55654;50.966;6.878;2023-07-24T00:39:18;18.08;;;9.95;;
43529;SDS011;55654;50.966;6.878;2023-07-24T00:41:44;17.13;;;9.52;;
43529;SDS011;55654;50.966;6.878;2023-07-24T00:44:10;14.93;;;8.75;;
43529;SDS011;55654;50.966;6.878;2023-07-24T00:46:36;13.50;;;7.90;;
43529;SDS011;55654;50.966;6.878;2023-07-24T00:49:07;10.23;;;6.80;;
43529;SDS011;55654;50.966;6.878;2023-07-24T00:51:34;8.02;;;5.95;;
43529;SDS011;55654;50.966;6.878;2023-07-24T00:54:01;10.70;;;6.55;;
43529;SDS011;55654;50.966;6.878;2023-07-24T00:56:27;9.50;;;5.13;;
43529;SDS011;55654;50.966;6.878;2023-07-24T00:58:56;6.72;;;4.63;;
43529;SDS011;55654;50.966;6.878;2023-07-24T01:01:22;7.03;;;4.40;;
43529;SDS011;55654;50.966;6.878;2023-07-24T01:03:49;11.00;;;4.80;;
43529;SDS011;55654;50.966;6.878;2023-07-24T01:06:15;5.45;;;4.70;;
43529;SDS011;55654;50.966;6.878;2023-07-24T01:08:41;5.75;;;4.00;;
43529;SDS011;55654;50.966;6.878;2023-07-24T01:11:09;6.80;;;4.18;;
43529;SDS011;55654;50.966;6.878;2023-07-24T01:13:40;9.00;;;4.50;;
43529;SDS011;55654;50.966;6.878;2023-07-24T01:16:08;9.85;;;4.47;;
43529;SDS011;55654;50.966;6.878;2023-07-24T01:18:37;5.65;;;4.20;;
43529;SDS011;55654;50.966;6.878;2023-07-24T01:21:08;6.18;;;4.15;;
43529;SDS011;55654;50.966;6.878;2023-07-24T01:26:19;6.80;;;4.50;;
43529;SDS011;55654;50.966;6.878;2023-07-24T01:28:45;5.50;;;4.13;;
43529;SDS011;55654;50.966;6.878;2023-07-24T01:31:11;8.75;;;4.78;;
43529;SDS011;55654;50.966;6.878;2023-07-24T01:33:37;6.65;;;4.18;;
43529;SDS011;55654;50.966;6.878;2023-07-24T01:36:04;5.68;;;4.15;;
43529;SDS011;55654;50.966;6.878;2023-07-24T01:38:31;5.43;;;3.70;;
43529;SDS011;55654;50.966;6.878;2023-07-24T01:41:00;6.45;;;3.72;;
43529;SDS011;55654;50.966;6.878;2023-07-24T01:43:26;6.22;;;4.70;;
43529;SDS011;55654;50.966;6.878;2023-07-24T01:45:52;5.57;;;3.92;;
43529;SDS011;55654;50.966;6.878;2023-07-24T01:48:18;8.82;;;4.90;;
43529;SDS011;55654;50.966;6.878;2023-07-24T01:50:47;9.90;;;4.82;;
43529;SDS011;55654;50.966;6.878;2023-07-24T01:53:13;6.20;;;4.25;;
43529;SDS011;55654;50.966;6.878;2023-07-24T01:55:39;4.82;;;3.72;;
43529;SDS011;55654;50.966;6.878;2023-07-24T01:58:05;5.57;;;4.32;;
43529;SDS011;55654;50.966;6.878;2023-07-24T02:00:31;6.25;;;4.45;;
43529;SDS011;55654;50.966;6.878;2023-07-24T02:02:57;7.47;;;4.22;;
43529;SDS011;55654;50.966;6.878;2023-07-24T02:05:23;8.32;;;4.88;;
43529;SDS011;55654;50.966;6.878;2023-07-24T02:07:49;10.80;;;4.68;;
43529;SDS011;55654;50.966;6.878;2023-07-24T02:10:15;6.22;;;4.20;;
43529;SDS011;55654;50.966;6.878;2023-07-24T02:12:41;6.93;;;4.03;;
43529;SDS011;55654;50.966;6.878;2023-07-24T02:15:07;5.82;;;4.35;;
43529;SDS011;55654;50.966;6.878;2023-07-24T02:17:33;7.00;;;4.55;;
43529;SDS011;55654;50.966;6.878;2023-07-24T02:19:59;9.63;;;4.38;;
43529;SDS011;55654;50.966;6.878;2023-07-24T02:22:27;9.55;;;4.00;;
43529;SDS011;55654;50.966;6.878;2023-07-24T02:24:53;8.90;;;4.32;;
43529;SDS011;55654;50.966;6.878;2023-07-24T02:27:29;7.13;;;4.75;;
43529;SDS011;55654;50.966;6.878;2023-07-24T02:29:56;14.50;;;4.43;;
43529;SDS011;55654;50.966;6.878;2023-07-24T02:32:22;8.88;;;4.75;;
43529;SDS011;55654;50.966;6.878;2023-07-24T02:34:51;10.32;;;5.68;;
43529;SDS011;55654;50.966;6.878;2023-07-24T02:37:19;9.90;;;5.03;;
43529;SDS011;55654;50.966;6.878;2023-07-24T02:39:48;9.13;;;5.60;;
43529;SDS011;55654;50.966;6.878;2023-07-24T02:42:14;6.95;;;5.40;;
43529;SDS011;55654;50.966;6.878;2023-07-24T02:44:40;6.88;;;4.97;;
43529;SDS011;55654;50.966;6.878;2023-07-24T02:47:08;6.82;;;5.00;;
43529;SDS011;55654;50.966;6.878;2023-07-24T02:49:34;10.40;;;5.43;;
43529;SDS011;55654;50.966;6.878;2023-07-24T02:52:00;8.13;;;5.85;;
43529;SDS011;55654;50.966;6.878;2023-07-24T02:54:26;8.73;;;5.18;;
43529;SDS011;55654;50.966;6.878;2023-07-24T02:56:52;12.52;;;6.13;;
43529;SDS011;55654;50.966;6.878;2023-07-24T02:59:20;13.15;;;6.53;;
43529;SDS011;55654;50.966;6.878;2023-07-24T03:01:46;12.48;;;6.18;;
43529;SDS011;55654;50.966;6.878;2023-07-24T03:04:12;12.20;;;5.97;;
43529;SDS011;55654;50.966;6.878;2023-07-24T03:06:40;12.57;;;5.88;;
43529;SDS011;55654;50.966;6.878;2023-07-24T03:09:06;8.55;;;5.47;;
43529;SDS011;55654;50.966;6.878;2023-07-24T03:11:32;12.07;;;6.00;;
43529;SDS011;55654;50.966;6.878;2023-07-24T03:13:58;10.52;;;5.15;;
43529;SDS011;55654;50.966;6.878;2023-07-24T03:16:27;8.90;;;5.38;;
43529;SDS011;55654;50.966;6.878;2023-07-24T03:18:53;9.45;;;5.20;;
43529;SDS011;55654;50.966;6.878;2023-07-24T03:21:19;12.13;;;5.88;;
43529;SDS011;55654;50.966;6.878;2023-07-24T03:23:46;11.77;;;4.90;;
43529;SDS011;55654;50.966;6.878;2023-07-24T03:26:12;10.75;;;5.85;;
43529;SDS011;55654;50.966;6.878;2023-07-24T03:28:38;15.85;;;6.32;;
43529;SDS011;55654;50.966;6.878;2023-07-24T03:31:04;10.52;;;5.30;;
43529;SDS011;55654;50.966;6.878;2023-07-24T03:33:30;9.30;;;5.72;;
43529;SDS011;55654;50.966;6.878;2023-07-24T03:35:56;10.90;;;5.80;;
43529;SDS011;55654;50.966;6.878;2023-07-24T03:38:22;15.52;;;5.53;;
43529;SDS011;55654;50.966;6.878;2023-07-24T03:40:48;9.20;;;5.97;;
43529;SDS011;55654;50.966;6.878;2023-07-24T03:43:14;13.75;;;6.10;;
43529;SDS011;55654;50.966;6.878;2023-07-24T03:45:40;9.45;;;5.20;;
43529;SDS011;55654;50.966;6.878;2023-07-24T03:48:07;15.75;;;6.88;;
43529;SDS011;55654;50.966;6.878;2023-07-24T03:50:33;13.07;;;5.88;;
43529;SDS011;55654;50.966;6.878;2023-07-24T03:53:01;11.25;;;5.43;;
43529;SDS011;55654;50.966;6.878;2023-07-24T03:55:27;17.48;;;4.85;;
43529;SDS011;55654;50.966;6.878;2023-07-24T03:57:53;12.63;;;7.07;;
43529;SDS011;55654;50.966;6.878;2023-07-24T04:00:19;16.52;;;5.47;;
43529;SDS011;55654;50.966;6.878;2023-07-24T04:02:46;9.70;;;5.20;;
43529;SDS011;55654;50.966;6.878;2023-07-24T04:05:12;10.43;;;5.93;;
43529;SDS011;55654;50.966;6.878;2023-07-24T04:07:38;10.30;;;5.68;;
43529;SDS011;55654;50.966;6.878;2023-07-24T04:10:07;6.07;;;4.57;;
43529;SDS011;55654;50.966;6.878;2023-07-24T04:12:33;12.05;;;6.05;;
43529;SDS011;55654;50.966;6.878;2023-07-24T04:15:01;9.13;;;5.25;;
43529;SDS011;55654;50.966;6.878;2023-07-24T04:17:27;9.07;;;5.70;;
43529;SDS011;55654;50.966;6.878;2023-07-24T04:19:53;8.45;;;5.60;;
43529;SDS011;55654;50.966;6.878;2023-07-24T04:22:20;12.52;;;6.47;;
43529;SDS011;55654;50.966;6.878;2023-07-24T04:24:46;12.18;;;5.45;;
43529;SDS011;55654;50.966;6.878;2023-07-24T04:27:12;10.75;;;5.25;;
43529;SDS011;55654;50.966;6.878;2023-07-24T04:29:38;13.30;;;5.75;;
43529;SDS011;55654;50.966;6.878;2023-07-24T04:32:06;8.45;;;5.18;;
43529;SDS011;55654;50.966;6.878;2023-07-24T04:34:32;8.98;;;5.40;;
43529;SDS011;55654;50.966;6.878;2023-07-24T04:36:58;10.00;;;5.85;;
43529;SDS011;55654;50.966;6.878;2023-07-24T04:39:24;11.35;;;5.57;;
43529;SDS011;55654;50.966;6.878;2023-07-24T04:41:50;9.75;;;5.45;;
43529;SDS011;55654;50.966;6.878;2023-07-24T04:44:16;8.73;;;5.60;;
43529;SDS011;55654;50.966;6.878;2023-07-24T04:46:42;9.68;;;5.03;;
43529;SDS011;55654;50.966;6.878;2023-07-24T04:49:08;10.00;;;5.82;;
43529;SDS011;55654;50.966;6.878;2023-07-24T04:51:36;11.52;;;5.40;;
43529;SDS011;55654;50.966;6.878;2023-07-24T04:54:02;7.90;;;5.07;;
43529;SDS011;55654;50.966;6.878;2023-07-24T04:56:28;7.78;;;5.47;;
43529;SDS011;55654;50.966;6.878;2023-07-24T04:58:54;10.13;;;5.50;;
43529;SDS011;55654;50.966;6.878;2023-07-24T05:01:23;8.93;;;5.07;;
43529;SDS011;55654;50.966;6.878;2023-07-24T05:03:49;8.85;;;5.53;;
43529;SDS011;55654;50.966;6.878;2023-07-24T05:06:14;12.07;;;6.22;;
43529;SDS011;55654;50.966;6.878;2023-07-24T05:08:43;10.77;;;5.60;;
43529;SDS011;55654;50.966;6.878;2023-07-24T05:11:09;9.73;;;5.60;;
43529;SDS011;55654;50.966;6.878;2023-07-24T05:13:35;9.65;;;5.15;;
43529;SDS011;55654;50.966;6.878;2023-07-24T05:16:01;7.97;;;5.32;;
43529;SDS011;55654;50.966;6.878;2023-07-24T05:18:26;12.43;;;5.45;;
43529;SDS011;55654;50.966;6.878;2023-07-24T05:20:53;12.52;;;6.07;;
43529;SDS011;55654;50.966;6.878;2023-07-24T05:23:21;7.82;;;5.28;;
43529;SDS011;55654;50.966;6.878;2023-07-24T05:25:47;11.32;;;5.70;;
43529;SDS011;55654;50.966;6.878;2023-07-24T05:28:15;6.53;;;4.70;;
43529;SDS011;55654;50.966;6.878;2023-07-24T05:30:41;11.07;;;5.95;;
43529;SDS011;55654;50.966;6.878;2023-07-24T05:33:07;11.27;;;5.47;;
43529;SDS011;55654;50.966;6.878;2023-07-24T05:35:33;8.88;;;5.35;;
43529;SDS011;55654;50.966;6.878;2023-07-24T05:37:59;11.18;;;5.53;;
43529;SDS011;55654;50.966;6.878;2023-07-24T05:40:25;13.32;;;6.20;;
43529;SDS011;55654;50.966;6.878;2023-07-24T05:42:54;9.05;;;5.40;;
43529;SDS011;55654;50.966;6.878;2023-07-24T05:45:20;7.50;;;4.55;;
43529;SDS011;55654;50.966;6.878;2023-07-24T05:47:46;8.07;;;5.32;;
43529;SDS011;55654;50.966;6.878;2023-07-24T05:50:12;10.80;;;4.97;;
43529;SDS011;55654;50.966;6.878;2023-07-24T05:52:40;8.20;;;4.60;;
43529;SDS011;55654;50.966;6.878;2023-07-24T05:55:07;9.80;;;4.57;;
43529;SDS011;55654;50.966;6.878;2023-07-24T05:57:33;6.85;;;4.80;;
43529;SDS011;55654;50.966;6.878;2023-07-24T05:59:59;11.52;;;4.45;;
43529;SDS011;55654;50.966;6.878;2023-07-24T06:02:25;8.70;;;4.15;;
43529;SDS011;55654;50.966;6.878;2023-07-24T06:04:51;6.80;;;4.45;;
43529;SDS011;55654;50.966;6.878;2023-07-24T06:07:19;10.02;;;5.00;;
43529;SDS011;55654;50.966;6.878;2023-07-24T06:09:45;7.45;;;4.20;;
43529;SDS011;55654;50.966;6.878;2023-07-24T06:12:11;4.50;;;3.63;;
43529;SDS011;55654;50.966;6.878;2023-07-24T06:14:37;5.47;;;3.78;;
43529;SDS011;55654;50.966;6.878;2023-07-24T06:17:03;7.32;;;3.97;;
43529;SDS011;55654;50.966;6.878;2023-07-24T06:19:29;7.55;;;4.20;;
43529;SDS011;55654;50.966;6.878;2023-07-24T06:21:55;8.35;;;3.85;;
43529;SDS011;55654;50.966;6.878;2023-07-24T06:24:21;6.43;;;3.95;;
43529;SDS011;55654;50.966;6.878;2023-07-24T06:26:48;8.68;;;3.50;;
43529;SDS011;55654;50.966;6.878;2023-07-24T06:29:14;7.05;;;3.63;;
43529;SDS011;55654;50.966;6.878;2023-07-24T06:31:41;6.63;;;4.05;;
43529;SDS011;55654;50.966;6.878;2023-07-24T06:34:07;10.40;;;3.65;;
43529;SDS011;55654;50.966;6.878;2023-07-24T06:36:35;5.50;;;3.67;;
43529;SDS011;55654;50.966;6.878;2023-07-24T06:39:03;6.68;;;2.97;;
43529;SDS011;55654;50.966;6.878;2023-07-24T06:41:31;8.52;;;3.40;;
43529;SDS011;55654;50.966;6.878;2023-07-24T06:43:57;5.60;;;3.38;;
43529;SDS011;55654;50.966;6.878;2023-07-24T06:46:23;5.35;;;3.47;;
43529;SDS011;55654;50.966;6.878;2023-07-24T06:48:49;6.65;;;2.80;;
43529;SDS011;55654;50.966;6.878;2023-07-24T06:51:17;6.88;;;3.00;;
43529;SDS011;55654;50.966;6.878;2023-07-24T06:53:46;5.38;;;2.75;;
43529;SDS011;55654;50.966;6.878;2023-07-24T06:56:12;4.97;;;2.63;;
43529;SDS011;55654;50.966;6.878;2023-07-24T06:58:38;6.00;;;2.63;;
43529;SDS011;55654;50.966;6.878;2023-07-24T07:01:05;4.50;;;2.97;;
43529;SDS011;55654;50.966;6.878;2023-07-24T07:03:34;4.13;;;2.85;;
43529;SDS011;55654;50.966;6.878;2023-07-24T07:06:00;4.47;;;2.30;;
43529;SDS011;55654;50.966;6.878;2023-07-24T07:08:29;8.23;;;2.70;;
43529;SDS011;55654;50.966;6.878;2023-07-24T07:10:56;4.78;;;2.78;;
43529;SDS011;55654;50.966;6.878;2023-07-24T07:13:23;4.13;;;2.50;;
43529;SDS011;55654;50.966;6.878;2023-07-24T07:15:49;3.72;;;2.65;;
43529;SDS011;55654;50.966;6.878;2023-07-24T07:18:14;4.90;;;2.70;;
43529;SDS011;55654;50.966;6.878;2023-07-24T07:20:47;5.15;;;2.80;;
43529;SDS011;55654;50.966;6.878;2023-07-24T07:23:14;2.95;;;2.13;;
43529;SDS011;55654;50.966;6.878;2023-07-24T07:25:40;5.65;;;2.40;;
43529;SDS011;55654;50.966;6.878;2023-07-24T07:28:08;6.15;;;2.58;;
43529;SDS011;55654;50.966;6.878;2023-07-24T07:30:34;3.58;;;2.28;;
43529;SDS011;55654;50.966;6.878;2023-07-24T07:33:00;5.68;;;2.17;;
43529;SDS011;55654;50.966;6.878;2023-07-24T07:35:26;3.13;;;2.00;;
43529;SDS011;55654;50.966;6.878;2023-07-24T07:37:52;3.63;;;2.08;;
43529;SDS011;55654;50.966;6.878;2023-07-24T07:40:18;4.43;;;2.42;;
43529;SDS011;55654;50.966;6.878;2023-07-24T07:42:44;3.53;;;2.38;;
43529;SDS011;55654;50.966;6.878;2023-07-24T07:45:10;6.22;;;2.67;;
43529;SDS011;55654;50.966;6.878;2023-07-24T07:47:36;4.43;;;2.22;;
43529;SDS011;55654;50.966;6.878;2023-07-24T07:50:02;5.40;;;3.00;;
43529;SDS011;55654;50.966;6.878;2023-07-24T07:52:31;5.32;;;3.25;;
43529;SDS011;55654;50.966;6.878;2023-07-24T07:54:57;5.95;;;2.97;;
43529;SDS011;55654;50.966;6.878;2023-07-24T07:57:23;5.30;;;2.97;;
43529;SDS011;55654;50.966;6.878;2023-07-24T07:59:51;4.47;;;2.75;;
43529;SDS011;55654;50.966;6.878;2023-07-24T08:02:17;6.20;;;2.65;;
43529;SDS011;55654;50.966;6.878;2023-07-24T08:04:43;5.40;;;3.08;;
43529;SDS011;55654;50.966;6.878;2023-07-24T08:07:09;3.97;;;2.80;;
43529;SDS011;55654;50.966;6.878;2023-07-24T08:09:35;5.93;;;2.55;;
43529;SDS011;55654;50.966;6.878;2023-07-24T08:12:03;3.05;;;2.42;;
43529;SDS011;55654;50.966;6.878;2023-07-24T08:14:29;3.85;;;2.50;;
43529;SDS011;55654;50.966;6.878;2023-07-24T08:16:55;4.50;;;2.65;;
43529;SDS011;55654;50.966;6.878;2023-07-24T08:19:21;5.75;;;3.25;;
43529;SDS011;55654;50.966;6.878;2023-07-24T08:21:47;6.65;;;2.95;;
43529;SDS011;55654;50.966;6.878;2023-07-24T08:24:13;6.68;;;3.05;;
43529;SDS011;55654;50.966;6.878;2023-07-24T08:26:39;4.78;;;2.83;;
43529;SDS011;55654;50.966;6.878;2023-07-24T08:29:07;4.35;;;3.28;;
43529;SDS011;55654;50.966;6.878;2023-07-24T08:31:33;6.70;;;2.95;;
43529;SDS011;55654;50.966;6.878;2023-07-24T08:33:59;6.05;;;3.17;;
43529;SDS011;55654;50.966;6.878;2023-07-24T08:36:25;6.20;;;3.30;;
43529;SDS011;55654;50.966;6.878;2023-07-24T08:38:51;5.03;;;2.92;;
43529;SDS011;55654;50.966;6.878;2023-07-24T08:41:19;4.43;;;2.55;;
43529;SDS011;55654;50.966;6.878;2023-07-24T08:43:46;4.72;;;3.13;;
43529;SDS011;55654;50.966;6.878;2023-07-24T08:46:12;6.78;;;3.53;;
43529;SDS011;55654;50.966;6.878;2023-07-24T08:48:39;4.28;;;2.78;;
43529;SDS011;55654;50.966;6.878;2023-07-24T08:51:12;5.78;;;2.72;;
43529;SDS011;55654;50.966;6.878;2023-07-24T08:53:39;3.88;;;3.00;;
43529;SDS011;55654;50.966;6.878;2023-07-24T08:56:06;5.32;;;2.83;;
43529;SDS011;55654;50.966;6.878;2023-07-24T08:58:35;5.72;;;2.95;;
43529;SDS011;55654;50.966;6.878;2023-07-24T09:01:02;3.25;;;2.60;;
43529;SDS011;55654;50.966;6.878;2023-07-24T09:03:31;3.78;;;2.85;;
43529;SDS011;55654;50.966;6.878;2023-07-24T09:06:00;5.72;;;2.45;;
43529;SDS011;55654;50.966;6.878;2023-07-24T09:08:32;4.20;;;2.75;;
43529;SDS011;55654;50.966;6.878;2023-07-24T09:10:59;3.05;;;2.30;;
43529;SDS011;55654;50.966;6.878;2023-07-24T09:13:28;4.50;;;2.95;;
43529;SDS011;55654;50.966;6.878;2023-07-24T09:15:54;5.18;;;2.50;;
43529;SDS011;55654;50.966;6.878;2023-07-24T09:18:20;5.38;;;2.45;;
43529;SDS011;55654;50.966;6.878;2023-07-24T09:20:46;5.35;;;2.13;;
43529;SDS011;55654;50.966;6.878;2023-07-24T09:23:13;2.72;;;1.88;;
43529;SDS011;55654;50.966;6.878;2023-07-24T09:25:40;5.28;;;2.70;;
43529;SDS011;55654;50.966;6.878;2023-07-24T09:28:13;2.92;;;2.10;;
43529;SDS011;55654;50.966;6.878;2023-07-24T09:30:39;5.93;;;1.90;;
43529;SDS011;55654;50.966;6.878;2023-07-24T09:33:06;2.63;;;1.80;;
43529;SDS011;55654;50.966;6.878;2023-07-24T09:35:37;3.85;;;2.10;;
43529;SDS011;55654;50.966;6.878;2023-07-24T09:38:06;2.90;;;1.92;;
43529;SDS011;55654;50.966;6.878;2023-07-24T09:43:27;4.70;;;2.13;;
43529;SDS011;55654;50.966;6.878;2023-07-24T09:45:52;3.20;;;1.83;;
43529;SDS011;55654;50.966;6.878;2023-07-24T09:48:19;3.53;;;2.25;;
43529;SDS011;55654;50.966;6.878;2023-07-24T09:50:48;2.38;;;1.73;;
43529;SDS011;55654;50.966;6.878;2023-07-24T09:55:47;4.07;;;2.40;;
43529;SDS011;55654;50.966;6.878;2023-07-24T09:58:15;3.50;;;1.63;;
43529;SDS011;55654;50.966;6.878;2023-07-24T10:00:42;4.03;;;2.10;;
43529;SDS011;55654;50.966;6.878;2023-07-24T10:03:08;6.40;;;2.60;;
43529;SDS011;55654;50.966;6.878;2023-07-24T10:05:34;2.53;;;1.98;;
43529;SDS011;55654;50.966;6.878;2023-07-24T10:08:01;2.05;;;1.70;;
43529;SDS011;55654;50.966;6.878;2023-07-24T10:10:27;2.75;;;1.63;;
43529;SDS011;55654;50.966;6.878;2023-07-24T10:12:57;5.72;;;3.05;;
43529;SDS011;55654;50.966;6.878;2023-07-24T10:15:24;5.32;;;4.05;;
43529;SDS011;55654;50.966;6.878;2023-07-24T10:18:00;5.10;;;3.05;;
43529;SDS011;55654;50.966;6.878;2023-07-24T10:20:32;5.68;;;3.47;;
43529;SDS011;55654;50.966;6.878;2023-07-24T10:25:28;4.55;;;2.67;;
43529;SDS011;55654;50.966;6.878;2023-07-24T10:28:00;2.15;;;1.85;;
43529;SDS011;55654;50.966;6.878;2023-07-24T10:30:29;4.35;;;2.00;;
43529;SDS011;55654;50.966;6.878;2023-07-24T10:33:03;3.20;;;2.25;;
43529;SDS011;55654;50.966;6.878;2023-07-24T10:35:36;4.05;;;2.30;;
43529;SDS011;55654;50.966;6.878;2023-07-24T10:38:02;3.35;;;2.13;;
43529;SDS011;55654;50.966;6.878;2023-07-24T10:40:28;4.00;;;2.17;;
43529;SDS011;55654;50.966;6.878;2023-07-24T10:43:04;3.85;;;2.17;;
43529;SDS011;55654;50.966;6.878;2023-07-24T10:45:47;2.63;;;2.05;;
43529;SDS011;55654;50.966;6.878;2023-07-24T10:48:14;3.92;;;2.40;;
43529;SDS011;55654;50.966;6.878;2023-07-24T10:50:41;3.25;;;1.95;;
43529;SDS011;55654;50.966;6.878;2023-07-24T10:53:10;3.13;;;2.13;;
43529;SDS011;55654;50.966;6.878;2023-07-24T10:55:37;3.28;;;2.20;;
43529;SDS011;55654;50.966;6.878;2023-07-24T10:58:05;2.90;;;1.98;;
43529;SDS011;55654;50.966;6.878;2023-07-24T11:00:32;3.70;;;2.10;;
43529;SDS011;55654;50.966;6.878;2023-07-24T11:02:57;3.63;;;2.25;;
43529;SDS011;55654;50.966;6.878;2023-07-24T11:05:23;5.75;;;3.22;;
43529;SDS011;55654;50.966;6.878;2023-07-24T11:07:50;4.90;;;2.38;;
43529;SDS011;55654;50.966;6.878;2023-07-24T11:10:18;5.82;;;2.70;;
43529;SDS011;55654;50.966;6.878;2023-07-24T11:12:45;4.93;;;2.45;;
43529;SDS011;55654;50.966;6.878;2023-07-24T11:15:11;3.83;;;2.67;;
43529;SDS011;55654;50.966;6.878;2023-07-24T11:17:38;2.97;;;2.08;;
43529;SDS011;55654;50.966;6.878;2023-07-24T11:20:11;2.95;;;2.00;;
43529;SDS011;55654;50.966;6.878;2023-07-24T11:22:41;5.30;;;2.60;;
43529;SDS011;55654;50.966;6.878;2023-07-24T11:25:08;4.65;;;2.50;;
43529;SDS011;55654;50.966;6.878;2023-07-24T11:27:38;3.55;;;2.45;;
43529;SDS011;55654;50.966;6.878;2023-07-24T11:30:05;4.55;;;2.40;;
43529;SDS011;55654;50.966;6.878;2023-07-24T11:32:32;7.25;;;2.78;;
43529;SDS011;55654;50.966;6.878;2023-07-24T11:34:57;5.10;;;2.30;;
43529;SDS011;55654;50.966;6.878;2023-07-24T11:37:24;7.55;;;2.70;;
43529;SDS011;55654;50.966;6.878;2023-07-24T11:40:02;24.63;;;3.60;;
43529;SDS011;55654;50.966;6.878;2023-07-24T11:42:35;11.75;;;2.63;;
43529;SDS011;55654;50.966;6.878;2023-07-24T11:45:02;8.65;;;2.67;;
43529;SDS011;55654;50.966;6.878;2023-07-24T11:47:28;5.65;;;2.17;;
43529;SDS011;55654;50.966;6.878;2023-07-24T11:50:00;5.47;;;2.15;;
43529;SDS011;55654;50.966;6.878;2023-07-24T11:54:56;3.15;;;1.83;;
43529;SDS011;55654;50.966;6.878;2023-07-24T11:57:28;3.60;;;1.70;;
43529;SDS011;55654;50.966;6.878;2023-07-24T11:59:56;5.05;;;1.85;;
43529;SDS011;55654;50.966;6.878;2023-07-24T12:02:25;5.22;;;1.90;;
43529;SDS011;55654;50.966;6.878;2023-07-24T12:04:56;4.45;;;1.73;;
43529;SDS011;55654;50.966;6.878;2023-07-24T12:07:31;2.47;;;1.75;;
43529;SDS011;55654;50.966;6.878;2023-07-24T12:09:57;3.38;;;1.83;;
43529;SDS011;55654;50.966;6.878;2023-07-24T12:12:23;4.43;;;2.13;;
43529;SDS011;55654;50.966;6.878;2023-07-24T12:14:49;4.30;;;2.28;;
43529;SDS011;55654;50.966;6.878;2023-07-24T12:17:18;5.28;;;2.35;;
43529;SDS011;55654;50.966;6.878;2023-07-24T12:19:45;7.63;;;2.40;;
43529;SDS011;55654;50.966;6.878;2023-07-24T12:22:13;5.75;;;2.78;;
43529;SDS011;55654;50.966;6.878;2023-07-24T12:24:39;3.33;;;2.85;;
43529;SDS011;55654;50.966;6.878;2023-07-24T12:27:08;5.75;;;3.92;;
43529;SDS011;55654;50.966;6.878;2023-07-24T12:29:34;8.75;;;4.00;;
43529;SDS011;55654;50.966;6.878;2023-07-24T12:32:00;3.33;;;2.95;;
43529;SDS011;55654;50.966;6.878;2023-07-24T12:34:26;4.50;;;2.50;;
43529;SDS011;55654;50.966;6.878;2023-07-24T12:36:52;4.25;;;2.33;;
43529;SDS011;55654;50.966;6.878;2023-07-24T12:39:19;4.50;;;2.38;;
43529;SDS011;55654;50.966;6.878;2023-07-24T12:41:45;5.20;;;2.42;;
43529;SDS011;55654;50.966;6.878;2023-07-24T12:44:11;3.83;;;2.05;;
43529;SDS011;55654;50.966;6.878;2023-07-24T12:46:37;2.65;;;2.15;;
43529;SDS011;55654;50.966;6.878;2023-07-24T12:49:03;6.93;;;1.80;;
43529;SDS011;55654;50.966;6.878;2023-07-24T12:51:29;2.40;;;1.60;;
43529;SDS011;55654;50.966;6.878;2023-07-24T12:53:55;2.20;;;1.48;;
43529;SDS011;55654;50.966;6.878;2023-07-24T12:56:21;2.55;;;1.70;;
43529;SDS011;55654;50.966;6.878;2023-07-24T12:58:49;1.77;;;1.15;;
43529;SDS011;55654;50.966;6.878;2023-07-24T13:01:17;2.97;;;1.30;;
43529;SDS011;55654;50.966;6.878;2023-07-24T13:03:46;10.43;;;1.90;;
43529;SDS011;55654;50.966;6.878;2023-07-24T13:06:12;5.28;;;2.10;;
43529;SDS011;55654;50.966;6.878;2023-07-24T13:08:40;6.28;;;2.55;;
43529;SDS011;55654;50.966;6.878;2023-07-24T13:11:06;4.53;;;2.28;;
43529;SDS011;55654;50.966;6.878;2023-07-24T13:13:32;7.93;;;2.97;;
43529;SDS011;55654;50.966;6.878;2023-07-24T13:15:58;4.85;;;2.05;;
43529;SDS011;55654;50.966;6.878;2023-07-24T13:18:26;4.28;;;2.25;;
43529;SDS011;55654;50.966;6.878;2023-07-24T13:20:52;3.70;;;1.63;;
43529;SDS011;55654;50.966;6.878;2023-07-24T13:23:18;2.97;;;2.10;;
43529;SDS011;55654;50.966;6.878;2023-07-24T13:25:44;2.45;;;1.50;;
43529;SDS011;55654;50.966;6.878;2023-07-24T13:28:10;3.88;;;1.60;;
43529;SDS011;55654;50.966;6.878;2023-07-24T13:30:36;3.63;;;1.67;;
43529;SDS011;55654;50.966;6.878;2023-07-24T13:33:02;1.52;;;1.20;;
43529;SDS011;55654;50.966;6.878;2023-07-24T13:35:28;5.97;;;1.50;;
43529;SDS011;55654;50.966;6.878;2023-07-24T13:37:57;5.32;;;1.38;;
43529;SDS011;55654;50.966;6.878;2023-07-24T13:40:23;3.55;;;1.40;;
43529;SDS011;55654;50.966;6.878;2023-07-24T13:42:49;3.63;;;2.55;;
43529;SDS011;55654;50.966;6.878;2023-07-24T13:45:15;1.80;;;1.20;;
43529;SDS011;55654;50.966;6.878;2023-07-24T13:47:41;9.77;;;1.90;;
43529;SDS011;55654;50.966;6.878;2023-07-24T13:50:07;2.47;;;1.40;;
43529;SDS011;55654;50.966;6.878;2023-07-24T13:52:33;2.92;;;1.20;;
43529;SDS011;55654;50.966;6.878;2023-07-24T13:54:59;3.58;;;1.17;;
43529;SDS011;55654;50.966;6.878;2023-07-24T13:57:25;2.08;;;1.35;;
43529;SDS011;55654;50.966;6.878;2023-07-24T13:59:51;2.92;;;1.42;;
43529;SDS011;55654;50.966;6.878;2023-07-24T14:02:19;4.03;;;1.40;;
43529;SDS011;55654;50.966;6.878;2023-07-24T14:04:45;3.40;;;1.63;;
43529;SDS011;55654;50.966;6.878;2023-07-24T14:07:11;3.08;;;1.65;;
43529;SDS011;55654;50.966;6.878;2023-07-24T14:09:40;1.58;;;1.30;;
43529;SDS011;55654;50.966;6.878;2023-07-24T14:12:06;1.75;;;1.13;;
43529;SDS011;55654;50.966;6.878;2023-07-24T14:14:32;2.80;;;1.33;;
43529;SDS011;55654;50.966;6.878;2023-07-24T14:17:00;6.43;;;1.63;;
43529;SDS011;55654;50.966;6.878;2023-07-24T14:19:26;9.18;;;1.30;;
43529;SDS011;55654;50.966;6.878;2023-07-24T14:21:52;2.78;;;1.48;;
43529;SDS011;55654;50.966;6.878;2023-07-24T14:24:18;1.65;;;1.35;;
43529;SDS011;55654;50.966;6.878;2023-07-24T14:26:44;2.38;;;1.70;;
43529;SDS011;55654;50.966;6.878;2023-07-24T14:29:10;2.22;;;1.13;;
43529;SDS011;55654;50.966;6.878;2023-07-24T14:31:37;2.38;;;1.60;;
43529;SDS011;55654;50.966;6.878;2023-07-24T14:34:03;4.25;;;1.35;;
43529;SDS011;55654;50.966;6.878;2023-07-24T14:36:29;3.05;;;1.63;;
43529;SDS011;55654;50.966;6.878;2023-07-24T14:39:01;4.97;;;1.75;;
43529;SDS011;55654;50.966;6.878;2023-07-24T14:41:27;1.75;;;1.00;;
43529;SDS011;55654;50.966;6.878;2023-07-24T14:43:53;1.80;;;1.00;;
43529;SDS011;55654;50.966;6.878;2023-07-24T14:46:22;2.00;;;1.40;;
43529;SDS011;55654;50.966;6.878;2023-07-24T14:48:48;1.88;;;1.35;;
43529;SDS011;55654;50.966;6.878;2023-07-24T14:51:14;1.80;;;1.50;;
43529;SDS011;55654;50.966;6.878;2023-07-24T14:53:40;3.40;;;1.70;;
43529;SDS011;55654;50.966;6.878;2023-07-24T14:56:06;2.67;;;1.60;;